createdAt,value
2018-08-13T00:01:52.001Z,20.98
2018-08-13T00:04:20.175Z,20.87
2018-08-13T00:06:49.298Z,20.84
2018-08-13T00:09:49.629Z,20.85
2018-08-13T00:12:17.943Z,20.91
2018-08-13T00:14:46.248Z,20.90
2018-08-13T00:17:16.435Z,20.98
2018-08-13T00:19:44.587Z,20.80
2018-08-13T00:22:13.031Z,20.76
2018-08-13T00:24:41.652Z,20.74
2018-08-13T00:27:09.951Z,20.80
2018-08-13T00:29:38.331Z,20.74
2018-08-13T00:32:06.469Z,20.74
2018-08-13T00:34:34.643Z,20.78
2018-08-13T00:37:02.803Z,20.75
2018-08-13T00:39:31.428Z,20.74
2018-08-13T00:42:00.945Z,20.73
2018-08-13T00:44:29.718Z,20.67
2018-08-13T00:46:58.219Z,20.67
2018-08-13T00:49:26.425Z,20.62
2018-08-13T00:51:54.679Z,20.67
2018-08-13T00:54:22.902Z,20.59
2018-08-13T00:56:51.078Z,20.47
2018-08-13T00:59:20.879Z,20.33
2018-08-13T01:01:49.061Z,20.32
2018-08-13T01:04:17.229Z,20.26
2018-08-13T01:06:46.456Z,20.28
2018-08-13T01:09:14.913Z,20.32
2018-08-13T01:11:43.131Z,20.33
2018-08-13T01:14:12.452Z,20.32
2018-08-13T01:16:41.426Z,20.33
2018-08-13T01:19:09.812Z,20.32
2018-08-13T01:21:38.942Z,20.28
2018-08-13T01:24:08.093Z,20.11
2018-08-13T01:26:36.914Z,20.08
2018-08-13T01:29:05.825Z,20.03
2018-08-13T01:31:34.445Z,19.92
2018-08-13T01:34:02.684Z,19.86
2018-08-13T01:36:31.828Z,19.86
2018-08-13T01:39:00.303Z,19.80
2018-08-13T01:41:29.173Z,19.66
2018-08-13T01:43:59.037Z,19.61
2018-08-13T01:46:28.173Z,19.52
2018-08-13T01:48:57.025Z,19.60
2018-08-13T01:51:26.425Z,19.52
2018-08-13T01:53:55.595Z,19.54
2018-08-13T01:56:24.248Z,19.60
2018-08-13T01:58:53.066Z,19.61
2018-08-13T02:01:21.729Z,19.60
2018-08-13T02:03:49.965Z,19.66
2018-08-13T02:06:18.292Z,19.60
2018-08-13T02:08:46.517Z,19.50
2018-08-13T02:11:14.958Z,19.47
2018-08-13T02:13:43.379Z,19.31
2018-08-13T02:16:11.781Z,19.18
2018-08-13T02:18:46.705Z,19.11
2018-08-13T02:21:14.923Z,19.03
2018-08-13T02:23:44.127Z,19.15
2018-08-13T02:26:12.601Z,19.18
2018-08-13T02:28:40.862Z,19.23
2018-08-13T02:31:09.384Z,19.22
2018-08-13T02:33:37.571Z,19.14
2018-08-13T02:36:06.085Z,19.11
2018-08-13T02:38:34.479Z,18.99
2018-08-13T02:41:03.042Z,18.89
2018-08-13T02:43:31.277Z,18.74
2018-08-13T02:45:59.520Z,18.74
2018-08-13T02:48:27.768Z,18.79
2018-08-13T02:50:56.299Z,18.78
2018-08-13T02:53:24.464Z,18.67
2018-08-13T02:55:55.998Z,18.68
2018-08-13T02:58:24.216Z,18.66
2018-08-13T03:00:52.574Z,18.64
2018-08-13T03:03:20.752Z,18.70
2018-08-13T03:05:49.144Z,18.78
2018-08-13T03:08:17.404Z,18.77
2018-08-13T03:10:45.626Z,18.76
2018-08-13T03:13:13.828Z,18.70
2018-08-13T03:15:42.022Z,18.77
2018-08-13T03:18:10.300Z,18.67
2018-08-13T03:20:38.746Z,18.76
2018-08-13T03:23:07.458Z,18.72
2018-08-13T03:25:35.834Z,18.65
2018-08-13T03:28:04.112Z,18.52
2018-08-13T03:30:33.092Z,18.54
2018-08-13T03:33:01.385Z,18.52
2018-08-13T03:35:30.650Z,18.37
2018-08-13T03:37:59.160Z,18.41
2018-08-13T03:40:28.491Z,18.52
2018-08-13T03:42:56.722Z,18.51
2018-08-13T03:45:25.215Z,18.55
2018-08-13T03:47:53.754Z,18.52
2018-08-13T03:50:22.130Z,18.52
2018-08-13T03:52:50.396Z,18.49
2018-08-13T03:55:18.839Z,18.51
2018-08-13T03:57:47.270Z,18.43
2018-08-13T04:00:16.133Z,18.37
2018-08-13T04:02:44.675Z,18.31
2018-08-13T04:05:13.905Z,18.34
2018-08-13T04:07:42.214Z,18.30
2018-08-13T04:10:12.007Z,18.37
2018-08-13T04:12:41.787Z,18.39
2018-08-13T04:15:11.544Z,18.34
2018-08-13T04:17:39.825Z,18.43
2018-08-13T04:20:10.493Z,18.47
2018-08-13T04:22:38.777Z,18.42
2018-08-13T04:25:08.314Z,18.32
2018-08-13T04:27:36.897Z,18.42
2018-08-13T04:30:12.978Z,18.49
2018-08-13T04:32:42.141Z,18.35
2018-08-13T04:35:10.549Z,18.42
2018-08-13T04:37:39.615Z,18.50
2018-08-13T04:40:10.727Z,18.53
2018-08-13T04:42:39.288Z,18.58
2018-08-13T04:45:08.252Z,18.76
2018-08-13T04:47:36.648Z,18.78
2018-08-13T04:50:07.422Z,18.90
2018-08-13T04:52:36.164Z,18.98
2018-08-13T04:55:06.501Z,18.98
2018-08-13T04:57:36.210Z,19.08
2018-08-13T05:00:06.308Z,19.14
2018-08-13T05:02:34.721Z,19.16
2018-08-13T05:05:03.858Z,19.31
2018-08-13T05:07:32.418Z,19.18
2018-08-13T05:10:00.741Z,19.25
2018-08-13T05:12:29.284Z,19.21
2018-08-13T05:14:57.666Z,19.38
2018-08-13T05:17:27.156Z,19.39
2018-08-13T05:19:55.344Z,19.45
2018-08-13T05:22:23.579Z,19.58
2018-08-13T05:24:51.830Z,19.58
2018-08-13T05:27:20.374Z,19.70
2018-08-13T05:29:48.580Z,19.78
2018-08-13T05:32:16.842Z,19.83
2018-08-13T05:34:45.069Z,20.02
2018-08-13T05:37:13.337Z,20.33
2018-08-13T05:39:42.958Z,21.09
2018-08-13T05:42:12.543Z,22.00
2018-08-13T05:44:40.773Z,22.64
2018-08-13T05:47:09.083Z,23.29
2018-08-13T05:49:37.299Z,23.85
2018-08-13T05:52:05.723Z,24.23
2018-08-13T05:54:33.947Z,24.92
2018-08-13T05:57:02.221Z,25.44
2018-08-13T05:59:30.437Z,26.12
2018-08-13T06:01:58.767Z,27.08
2018-08-13T06:04:26.985Z,27.47
2018-08-13T06:06:55.239Z,27.73
2018-08-13T06:09:23.625Z,28.29
2018-08-13T06:11:52.359Z,28.63
2018-08-13T06:14:20.770Z,28.97
2018-08-13T06:16:48.959Z,29.60
2018-08-13T06:19:17.231Z,30.25
2018-08-13T06:21:45.474Z,30.77
2018-08-13T06:24:13.792Z,31.64
2018-08-13T06:26:42.034Z,31.98
2018-08-13T06:29:11.006Z,32.86
2018-08-13T06:31:39.253Z,32.97
2018-08-13T06:34:07.664Z,32.73
2018-08-13T06:36:35.934Z,32.71
2018-08-13T06:39:07.506Z,33.85
2018-08-13T06:41:35.794Z,35.02
2018-08-13T06:44:04.509Z,35.93
2018-08-13T06:46:32.859Z,35.86
2018-08-13T06:49:01.082Z,35.75
2018-08-13T06:51:29.344Z,36.16
2018-08-13T06:53:57.542Z,36.57
2018-08-13T06:56:26.446Z,37.06
2018-08-13T06:58:54.660Z,37.50
2018-08-13T07:01:22.895Z,37.74
2018-08-13T07:03:51.160Z,38.35
2018-08-13T07:06:19.806Z,39.00
2018-08-13T07:08:48.204Z,39.48
2018-08-13T07:11:16.492Z,39.43
2018-08-13T07:13:44.810Z,38.96
2018-08-13T07:16:13.044Z,38.94
2018-08-13T07:18:42.134Z,39.77
2018-08-13T07:21:10.440Z,40.41
2018-08-13T07:23:38.812Z,41.52
2018-08-13T07:26:07.209Z,42.30
2018-08-13T07:28:36.190Z,42.95
2018-08-13T07:31:04.806Z,42.88
2018-08-13T07:33:33.277Z,41.88
2018-08-13T07:36:01.585Z,42.44
2018-08-13T07:38:29.841Z,42.96
2018-08-13T07:40:58.402Z,43.28
2018-08-13T07:43:26.676Z,43.39
2018-08-13T07:45:54.905Z,44.58
2018-08-13T07:48:23.114Z,45.47
2018-08-13T07:50:51.307Z,45.07
2018-08-13T07:53:19.638Z,44.36
2018-08-13T07:55:47.861Z,44.25
2018-08-13T07:58:16.061Z,44.93
2018-08-13T08:00:44.333Z,45.15
2018-08-13T08:03:12.599Z,46.22
2018-08-13T08:05:41.085Z,47.22
2018-08-13T08:08:09.379Z,47.90
2018-08-13T08:10:37.841Z,47.29
2018-08-13T08:13:06.567Z,48.61
2018-08-13T08:15:34.884Z,49.48
2018-08-13T08:18:04.179Z,50.81
2018-08-13T08:20:32.575Z,51.77
2018-08-13T08:23:00.974Z,51.56
2018-08-13T08:25:30.220Z,51.47
2018-08-13T08:27:59.948Z,51.97
2018-08-13T08:30:28.242Z,52.83
2018-08-13T08:32:56.523Z,50.90
2018-08-13T08:35:25.032Z,50.94
2018-08-13T08:37:53.408Z,51.66
2018-08-13T08:40:21.663Z,51.69
2018-08-13T08:42:50.265Z,51.93
2018-08-13T08:45:22.894Z,53.11
2018-08-13T08:47:53.250Z,53.46
2018-08-13T08:50:22.620Z,53.26
2018-08-13T08:52:50.910Z,53.76
2018-08-13T08:55:19.358Z,54.38
2018-08-13T08:57:48.924Z,54.65
2018-08-13T09:00:20.844Z,54.58
2018-08-13T09:02:49.292Z,54.46
2018-08-13T09:05:17.580Z,54.22
2018-08-13T09:07:46.236Z,53.53
2018-08-13T09:10:14.661Z,53.79
2018-08-13T09:12:42.925Z,55.03
2018-08-13T09:15:14.513Z,55.95
2018-08-13T09:17:59.816Z,55.06
2018-08-13T09:20:45.233Z,53.67
2018-08-13T09:23:30.651Z,54.16
2018-08-13T09:26:16.139Z,56.10
2018-08-13T09:29:01.347Z,58.11
2018-08-13T09:32:11.410Z,59.03
2018-08-13T09:34:55.265Z,59.50
2018-08-13T09:37:23.635Z,57.32
2018-08-13T09:39:52.886Z,57.91
2018-08-13T09:42:21.705Z,59.25
2018-08-13T09:44:49.964Z,60.14
2018-08-13T09:47:18.234Z,60.77
2018-08-13T09:49:46.507Z,58.62
2018-08-13T09:52:14.725Z,57.63
2018-08-13T09:54:43.740Z,59.49
2018-08-13T09:57:12.644Z,59.42
2018-08-13T09:59:40.912Z,60.41
2018-08-13T10:02:09.127Z,58.50
2018-08-13T10:04:37.403Z,58.00
2018-08-13T10:07:06.105Z,57.55
2018-08-13T10:09:34.485Z,54.97
2018-08-13T10:12:03.474Z,54.55
2018-08-13T10:14:31.863Z,55.20
2018-08-13T10:17:00.072Z,58.10
2018-08-13T10:19:28.369Z,58.78
2018-08-13T10:21:56.593Z,55.89
2018-08-13T10:24:24.958Z,55.54
2018-08-13T10:26:53.159Z,55.92
2018-08-13T10:29:22.144Z,55.44
2018-08-13T10:31:50.326Z,57.38
2018-08-13T10:34:18.650Z,59.61
2018-08-13T10:36:47.231Z,57.80
2018-08-13T10:39:15.772Z,56.47
2018-08-13T10:41:45.075Z,56.70
2018-08-13T10:44:13.337Z,57.60
2018-08-13T10:46:41.611Z,59.33
2018-08-13T10:49:09.769Z,59.83
2018-08-13T10:51:37.992Z,59.34
2018-08-13T10:54:06.419Z,59.78
2018-08-13T10:56:34.687Z,60.99
2018-08-13T10:59:04.638Z,60.37
2018-08-13T11:01:32.908Z,60.26
2018-08-13T11:04:01.134Z,59.57
2018-08-13T11:06:29.472Z,60.20
2018-08-13T11:08:57.700Z,58.18
2018-08-13T11:11:26.866Z,57.45
2018-08-13T11:13:55.408Z,59.52
2018-08-13T11:16:23.679Z,60.66
2018-08-13T11:18:52.065Z,59.63
2018-08-13T11:21:20.269Z,60.42
2018-08-13T11:23:48.528Z,60.59
2018-08-13T11:26:17.802Z,58.89
2018-08-13T11:28:46.326Z,55.03
2018-08-13T11:31:14.566Z,49.80
2018-08-13T11:33:42.990Z,48.46
2018-08-13T11:36:11.505Z,46.97
2018-08-13T11:38:39.741Z,45.77
2018-08-13T11:41:08.201Z,45.36
2018-08-13T11:43:36.504Z,47.07
2018-08-13T11:46:04.797Z,50.34
2018-08-13T11:48:33.045Z,50.22
2018-08-13T11:51:01.887Z,49.10
2018-08-13T11:53:30.153Z,47.30
2018-08-13T11:55:58.481Z,44.63
2018-08-13T11:58:26.781Z,42.02
2018-08-13T12:00:55.220Z,40.35
2018-08-13T12:03:23.653Z,39.00
2018-08-13T12:05:51.921Z,37.54
2018-08-13T12:08:20.217Z,36.90
2018-08-13T12:10:48.447Z,36.94
2018-08-13T12:13:17.325Z,37.02
2018-08-13T12:15:45.712Z,37.78
2018-08-13T12:18:14.346Z,38.92
2018-08-13T12:20:42.685Z,39.43
2018-08-13T12:23:10.972Z,40.92
2018-08-13T12:25:39.610Z,41.76
2018-08-13T12:28:07.952Z,42.63
2018-08-13T12:30:36.472Z,42.00
2018-08-13T12:33:05.834Z,41.13
2018-08-13T12:35:34.091Z,42.08
2018-08-13T12:38:02.469Z,41.36
2018-08-13T12:40:30.974Z,40.77
2018-08-13T12:42:59.314Z,40.01
2018-08-13T12:45:28.051Z,39.48
2018-08-13T12:47:56.946Z,39.50
2018-08-13T12:50:25.185Z,38.74
2018-08-13T12:52:53.569Z,38.12
2018-08-13T12:55:22.011Z,38.06
2018-08-13T12:57:50.414Z,37.47
2018-08-13T13:00:19.046Z,37.56
2018-08-13T13:02:47.298Z,37.90
2018-08-13T13:05:16.545Z,38.23
2018-08-13T13:07:44.880Z,39.02
2018-08-13T13:10:14.549Z,38.85
2018-08-13T13:12:43.333Z,38.90
2018-08-13T13:15:17.194Z,37.79
2018-08-13T13:17:45.621Z,36.81
2018-08-13T13:20:19.594Z,36.28
2018-08-13T13:22:48.447Z,35.83
2018-08-13T13:25:17.147Z,35.29
2018-08-13T13:27:45.496Z,34.56
2018-08-13T13:30:15.255Z,33.86
2018-08-13T13:32:43.853Z,32.70
2018-08-13T13:35:14.518Z,32.21
2018-08-13T13:37:42.977Z,31.51
2018-08-13T13:40:13.525Z,31.05
2018-08-13T13:42:41.841Z,31.03
2018-08-13T13:45:10.912Z,30.99
2018-08-13T13:47:39.351Z,30.52
2018-08-13T13:50:11.746Z,30.25
2018-08-13T13:52:40.001Z,29.76
2018-08-13T13:55:08.289Z,29.62
2018-08-13T13:57:36.541Z,29.41
2018-08-13T14:00:17.318Z,29.55
2018-08-13T14:02:47.486Z,29.28
2018-08-13T14:05:15.826Z,29.22
2018-08-13T14:07:44.142Z,28.86
2018-08-13T14:10:19.506Z,28.56
2018-08-13T14:12:47.823Z,28.59
2018-08-13T14:15:20.521Z,28.49
2018-08-13T14:17:49.354Z,28.39
2018-08-13T14:20:18.411Z,28.26
2018-08-13T14:22:46.741Z,28.01
2018-08-13T14:25:15.596Z,27.91
2018-08-13T14:27:43.807Z,27.79
2018-08-13T14:30:28.182Z,27.89
2018-08-13T14:32:56.440Z,27.94
2018-08-13T14:35:24.989Z,28.01
2018-08-13T14:37:53.295Z,28.12
2018-08-13T14:40:21.574Z,28.08
2018-08-13T14:42:49.824Z,28.06
2018-08-13T14:45:18.859Z,28.03
2018-08-13T14:47:49.134Z,27.70
2018-08-13T14:50:17.361Z,27.64
2018-08-13T14:52:46.604Z,27.44
2018-08-13T14:55:19.869Z,27.46
2018-08-13T14:57:48.210Z,27.32
2018-08-13T15:00:20.964Z,27.26
2018-08-13T15:02:50.312Z,27.26
2018-08-13T15:05:18.608Z,27.33
2018-08-13T15:07:46.882Z,27.28
2018-08-13T15:10:20.258Z,27.16
2018-08-13T15:12:48.865Z,27.12
2018-08-13T15:15:17.274Z,27.00
2018-08-13T15:17:45.768Z,27.11
2018-08-13T15:20:20.163Z,27.22
2018-08-13T15:22:48.610Z,27.32
2018-08-13T15:25:17.116Z,27.30
2018-08-13T15:27:45.656Z,27.53
2018-08-13T15:30:15.828Z,27.55
2018-08-13T15:32:45.294Z,27.64
2018-08-13T15:35:14.253Z,27.67
2018-08-13T15:37:43.075Z,27.72
2018-08-13T15:40:11.596Z,27.51
2018-08-13T15:42:40.431Z,27.47
2018-08-13T15:45:12.315Z,27.55
2018-08-13T15:47:40.811Z,27.46
2018-08-13T15:50:11.185Z,27.56
2018-08-13T15:52:39.497Z,27.72
2018-08-13T15:55:08.316Z,27.65
2018-08-13T15:57:37.431Z,27.52
2018-08-13T16:00:07.693Z,27.42
2018-08-13T16:02:36.122Z,27.56
2018-08-13T16:05:06.715Z,27.39
2018-08-13T16:07:34.981Z,27.35
2018-08-13T16:10:05.469Z,27.34
2018-08-13T16:12:34.744Z,27.12
2018-08-13T16:15:03.084Z,26.99
2018-08-13T16:17:31.315Z,26.79
2018-08-13T16:19:59.691Z,26.75
2018-08-13T16:22:28.001Z,26.68
2018-08-13T16:24:56.324Z,26.56
2018-08-13T16:27:24.834Z,26.59
2018-08-13T16:29:53.157Z,26.66
2018-08-13T16:32:21.381Z,26.64
2018-08-13T16:34:49.594Z,26.61
2018-08-13T16:37:17.850Z,26.61
2018-08-13T16:39:46.097Z,26.56
2018-08-13T16:42:14.424Z,26.62
2018-08-13T16:44:42.627Z,26.57
2018-08-13T16:47:10.898Z,26.58
2018-08-13T16:49:39.146Z,26.61
2018-08-13T16:52:07.654Z,26.72
2018-08-13T16:54:36.249Z,26.84
2018-08-13T16:57:05.202Z,26.94
2018-08-13T16:59:33.503Z,26.89
2018-08-13T17:02:01.766Z,26.86
2018-08-13T17:04:30.244Z,26.81
2018-08-13T17:06:58.751Z,26.73
2018-08-13T17:09:27.022Z,26.77
2018-08-13T17:11:56.186Z,26.79
2018-08-13T17:14:24.600Z,26.69
2018-08-13T17:16:52.690Z,26.60
2018-08-13T17:19:21.019Z,26.53
2018-08-13T17:21:49.341Z,26.48
2018-08-13T17:24:17.572Z,26.42
2018-08-13T17:26:45.868Z,26.25
2018-08-13T17:29:14.183Z,26.11
2018-08-13T17:31:42.399Z,26.14
2018-08-13T17:34:11.083Z,26.06
2018-08-13T17:36:39.522Z,26.05
2018-08-13T17:39:15.077Z,26.07
2018-08-13T17:41:43.332Z,25.96
2018-08-13T17:44:12.635Z,25.91
2018-08-13T17:46:40.994Z,26.00
2018-08-13T17:49:09.338Z,26.01
2018-08-13T17:51:38.029Z,25.88
2018-08-13T17:54:06.624Z,25.95
2018-08-13T17:56:34.922Z,25.77
2018-08-13T17:59:03.321Z,25.68
2018-08-13T18:01:31.889Z,25.60
2018-08-13T18:04:00.104Z,25.66
2018-08-13T18:06:28.496Z,25.64
2018-08-13T18:08:57.650Z,25.82
2018-08-13T18:11:26.167Z,25.85
2018-08-13T18:13:54.615Z,25.71
2018-08-13T18:16:22.930Z,25.61
2018-08-13T18:18:51.855Z,25.61
2018-08-13T18:21:20.179Z,25.42
2018-08-13T18:23:48.572Z,25.51
2018-08-13T18:26:16.903Z,25.40
2018-08-13T18:28:45.216Z,25.33
2018-08-13T18:31:13.397Z,25.26
2018-08-13T18:33:41.673Z,25.27
2018-08-13T18:36:10.051Z,25.28
2018-08-13T18:38:38.516Z,25.10
2018-08-13T18:41:06.955Z,25.07
2018-08-13T18:43:35.331Z,25.00
2018-08-13T18:46:03.892Z,24.94
2018-08-13T18:48:32.175Z,24.89
2018-08-13T18:51:00.503Z,24.75
2018-08-13T18:53:28.792Z,24.71
2018-08-13T18:55:57.200Z,24.65
2018-08-13T18:58:25.466Z,24.70
2018-08-13T19:00:53.806Z,24.62
2018-08-13T19:03:22.304Z,24.54
2018-08-13T19:05:50.632Z,24.51
2018-08-13T19:08:18.973Z,24.42
2018-08-13T19:10:47.313Z,24.45
2018-08-13T19:13:15.847Z,24.35
2018-08-13T19:15:44.296Z,24.38
2018-08-13T19:18:12.717Z,24.13
2018-08-13T19:20:41.042Z,24.08
2018-08-13T19:23:09.413Z,24.01
2018-08-13T19:25:37.801Z,24.03
2018-08-13T19:28:06.715Z,23.98
2018-08-13T19:30:35.128Z,23.95
2018-08-13T19:33:03.540Z,23.83
2018-08-13T19:35:32.039Z,23.75
2018-08-13T19:38:01.235Z,23.68
2018-08-13T19:40:29.811Z,23.74
2018-08-13T19:42:59.135Z,23.80
2018-08-13T19:45:28.012Z,23.75
2018-08-13T19:47:56.641Z,23.76
2018-08-13T19:50:25.222Z,23.86
2018-08-13T19:52:53.599Z,24.00
2018-08-13T19:55:22.314Z,23.89
2018-08-13T19:57:51.148Z,23.78
2018-08-13T20:00:23.896Z,23.68
2018-08-13T20:02:53.049Z,23.67
2018-08-13T20:05:22.755Z,23.65
2018-08-13T20:07:51.516Z,23.67
2018-08-13T20:10:19.857Z,23.74
2018-08-13T20:12:48.371Z,23.68
2018-08-13T20:15:16.685Z,23.62
2018-08-13T20:17:45.257Z,23.63
2018-08-13T20:20:16.258Z,23.69
2018-08-13T20:22:45.421Z,23.66
2018-08-13T20:25:15.636Z,23.56
2018-08-13T20:27:44.453Z,23.51
2018-08-13T20:30:16.184Z,23.45
2018-08-13T20:32:45.732Z,23.43
2018-08-13T20:35:14.155Z,23.34
2018-08-13T20:37:42.575Z,23.41
2018-08-13T20:40:13.604Z,23.39
2018-08-13T20:42:42.360Z,23.29
2018-08-13T20:45:13.384Z,23.27
2018-08-13T20:47:42.022Z,23.32
2018-08-13T20:50:14.329Z,23.22
2018-08-13T20:52:43.178Z,23.33
2018-08-13T20:55:17.433Z,23.30
2018-08-13T20:57:47.161Z,23.31
2018-08-13T21:00:16.796Z,23.34
2018-08-13T21:02:46.153Z,23.19
2018-08-13T21:05:14.657Z,23.10
2018-08-13T21:07:43.458Z,23.15
2018-08-13T21:10:14.442Z,23.11
2018-08-13T21:12:42.681Z,23.10
2018-08-13T21:15:12.594Z,23.12
2018-08-13T21:17:40.986Z,23.06
2018-08-13T21:20:11.109Z,23.07
2018-08-13T21:22:39.336Z,23.04
2018-08-13T21:25:11.817Z,23.10
2018-08-13T21:27:42.947Z,23.04
2018-08-13T21:30:11.365Z,23.01
2018-08-13T21:32:40.769Z,22.97
2018-08-13T21:35:09.633Z,23.08
2018-08-13T21:37:38.170Z,23.08
2018-08-13T21:40:08.397Z,23.08
2018-08-13T21:42:36.691Z,23.02
2018-08-13T21:45:06.305Z,23.02
2018-08-13T21:47:34.707Z,22.94
2018-08-13T21:50:03.836Z,22.93
2018-08-13T21:52:32.090Z,22.89
2018-08-13T21:55:00.526Z,22.86
2018-08-13T21:57:28.817Z,22.80
2018-08-13T21:59:57.052Z,22.87
2018-08-13T22:02:26.305Z,22.87
2018-08-13T22:04:54.621Z,22.76
2018-08-13T22:07:22.822Z,22.72
2018-08-13T22:09:51.017Z,22.74
2018-08-13T22:12:20.682Z,22.73
2018-08-13T22:14:49.444Z,22.65
2018-08-13T22:17:17.980Z,22.74
2018-08-13T22:19:46.225Z,22.66
2018-08-13T22:22:15.380Z,22.74
2018-08-13T22:25:00.692Z,22.91
2018-08-13T22:27:29.180Z,22.86
2018-08-13T22:29:58.692Z,22.79
2018-08-13T22:32:27.641Z,22.85
2018-08-13T22:34:55.886Z,22.76
2018-08-13T22:37:24.239Z,22.73
2018-08-13T22:39:52.450Z,22.76
2018-08-13T22:42:21.149Z,22.72
2018-08-13T22:44:50.361Z,22.68
2018-08-13T22:47:19.054Z,22.65
2018-08-13T22:49:47.340Z,22.54
2018-08-13T22:52:15.827Z,22.56
2018-08-13T22:54:44.306Z,22.42
2018-08-13T22:57:12.650Z,22.37
2018-08-13T22:59:40.885Z,22.29
2018-08-13T23:02:09.317Z,22.30
2018-08-13T23:04:37.603Z,22.30
2018-08-13T23:07:06.322Z,22.18
2018-08-13T23:09:34.634Z,22.18
2018-08-13T23:12:05.912Z,22.18
2018-08-13T23:14:34.548Z,22.13
2018-08-13T23:17:03.005Z,22.01
2018-08-13T23:19:31.178Z,22.14
2018-08-13T23:21:59.943Z,22.12
2018-08-13T23:24:28.638Z,22.12
2018-08-13T23:26:57.288Z,22.10
2018-08-13T23:29:25.561Z,22.08
2018-08-13T23:31:53.799Z,22.05
2018-08-13T23:34:21.900Z,22.15
2018-08-13T23:36:50.121Z,22.17
2018-08-13T23:39:18.497Z,22.12
2018-08-13T23:41:46.831Z,22.10
2018-08-13T23:44:15.043Z,22.09
2018-08-13T23:46:43.251Z,22.02
2018-08-13T23:49:11.504Z,22.01
2018-08-13T23:51:39.745Z,22.04
2018-08-13T23:54:07.974Z,21.97
2018-08-13T23:56:36.339Z,21.90
2018-08-13T23:59:04.737Z,21.75
